createdAt,value
2019-02-05T00:01:03.027Z,4.17
2019-02-05T00:03:33.890Z,7.20
2019-02-05T00:06:05.019Z,4.60
2019-02-05T00:08:38.033Z,4.83
2019-02-05T00:11:09.796Z,4.58
2019-02-05T00:13:41.317Z,4.00
2019-02-05T00:16:16.571Z,5.15
2019-02-05T00:18:51.549Z,4.13
2019-02-05T00:21:20.595Z,4.50
2019-02-05T00:23:53.044Z,4.03
2019-02-05T00:26:22.488Z,5.55
2019-02-05T00:28:53.004Z,5.17
2019-02-05T00:31:24.099Z,5.90
2019-02-05T00:33:54.812Z,3.90
2019-02-05T00:36:30.051Z,3.33
2019-02-05T00:39:00.201Z,5.78
2019-02-05T00:41:29.187Z,4.50
2019-02-05T00:44:06.325Z,3.57
2019-02-05T00:46:37.209Z,5.43
2019-02-05T00:49:12.354Z,5.77
2019-02-05T00:51:43.332Z,4.15
2019-02-05T00:54:15.715Z,4.17
2019-02-05T00:56:50.139Z,6.10
2019-02-05T00:59:24.817Z,4.22
2019-02-05T01:01:57.891Z,5.50
2019-02-05T01:04:29.040Z,5.00
2019-02-05T01:07:00.000Z,3.83
2019-02-05T01:09:34.748Z,4.33
2019-02-05T01:12:17.871Z,3.87
2019-02-05T01:14:51.016Z,4.03
2019-02-05T01:17:21.904Z,6.23
2019-02-05T01:19:54.513Z,4.33
2019-02-05T01:22:25.034Z,7.17
2019-02-05T01:24:54.545Z,5.43
2019-02-05T01:27:26.931Z,3.43
2019-02-05T01:30:01.437Z,4.58
2019-02-05T01:32:33.008Z,4.27
2019-02-05T01:35:04.751Z,2.98
2019-02-05T01:37:38.606Z,4.97
2019-02-05T01:40:14.276Z,4.03
2019-02-05T01:42:49.405Z,3.73
2019-02-05T01:45:21.530Z,3.97
2019-02-05T01:47:55.110Z,7.10
2019-02-05T01:50:27.101Z,3.70
2019-02-05T01:53:00.718Z,3.97
2019-02-05T01:55:33.172Z,3.70
2019-02-05T01:58:07.725Z,4.37
2019-02-05T02:00:39.574Z,4.37
2019-02-05T02:03:12.078Z,3.83
2019-02-05T02:05:43.387Z,3.70
2019-02-05T02:08:19.595Z,4.47
2019-02-05T02:10:50.677Z,3.67
2019-02-05T02:13:22.815Z,4.30
2019-02-05T02:15:54.588Z,4.10
2019-02-05T02:18:27.357Z,5.60
2019-02-05T02:21:05.268Z,3.70
2019-02-05T02:23:36.433Z,3.63
2019-02-05T02:26:08.611Z,4.67
2019-02-05T02:28:40.286Z,3.30
2019-02-05T02:31:12.794Z,2.53
2019-02-05T02:33:43.175Z,4.67
2019-02-05T02:36:15.149Z,3.93
2019-02-05T02:38:47.494Z,3.43
2019-02-05T02:41:19.198Z,3.63
2019-02-05T02:43:51.082Z,3.63
2019-02-05T02:46:22.574Z,3.40
2019-02-05T02:48:54.572Z,3.07
2019-02-05T02:51:29.557Z,4.23
2019-02-05T02:53:59.997Z,4.97
2019-02-05T02:56:36.535Z,4.13
2019-02-05T02:59:05.068Z,4.33
2019-02-05T03:01:37.675Z,6.43
2019-02-05T03:04:09.723Z,4.13
2019-02-05T03:06:41.293Z,4.93
2019-02-05T03:09:15.928Z,3.10
2019-02-05T03:11:50.910Z,3.50
2019-02-05T03:14:25.212Z,3.53
2019-02-05T03:16:57.244Z,3.70
2019-02-05T03:19:31.477Z,4.50
2019-02-05T03:22:08.721Z,5.10
2019-02-05T03:24:43.736Z,4.57
2019-02-05T03:27:18.199Z,4.93
2019-02-05T03:29:52.431Z,5.77
2019-02-05T03:32:28.616Z,6.03
2019-02-05T03:35:00.380Z,4.47
2019-02-05T03:37:35.091Z,4.33
2019-02-05T03:40:04.403Z,5.00
2019-02-05T03:42:37.055Z,5.10
2019-02-05T03:45:15.629Z,4.80
2019-02-05T03:47:56.343Z,4.40
2019-02-05T03:50:28.726Z,5.20
2019-02-05T03:53:19.995Z,4.00
2019-02-05T03:56:15.712Z,4.63
2019-02-05T03:59:04.225Z,4.47
2019-02-05T04:01:48.734Z,7.80
2019-02-05T04:04:26.793Z,5.43
2019-02-05T04:07:03.972Z,6.93
2019-02-05T04:09:55.827Z,4.83
2019-02-05T04:12:31.913Z,4.33
2019-02-05T04:15:06.762Z,5.90
2019-02-05T04:17:41.800Z,6.33
2019-02-05T04:20:14.601Z,5.33
2019-02-05T04:22:44.435Z,5.07
2019-02-05T04:25:20.701Z,4.50
2019-02-05T04:27:53.447Z,7.60
2019-02-05T04:30:39.587Z,5.87
2019-02-05T04:33:27.119Z,5.10
2019-02-05T04:36:09.117Z,7.00
2019-02-05T04:38:39.111Z,7.90
2019-02-05T04:41:14.891Z,4.93
2019-02-05T04:43:49.195Z,6.63
2019-02-05T04:46:35.975Z,7.33
2019-02-05T04:49:05.960Z,4.10
2019-02-05T04:51:38.432Z,4.43
2019-02-05T04:54:37.524Z,5.23
2019-02-05T04:57:16.260Z,3.97
2019-02-05T05:00:04.610Z,5.40
2019-02-05T05:02:37.441Z,5.37
2019-02-05T05:05:07.383Z,4.70
2019-02-05T05:07:40.130Z,4.20
2019-02-05T05:10:09.399Z,4.53
2019-02-05T05:12:37.748Z,4.47
2019-02-05T05:15:08.045Z,4.20
2019-02-05T05:17:36.430Z,5.13
2019-02-05T05:20:06.330Z,5.13
2019-02-05T05:22:34.791Z,4.43
2019-02-05T05:25:04.432Z,4.27
2019-02-05T05:27:32.797Z,3.60
2019-02-05T05:30:02.397Z,4.63
2019-02-05T05:32:31.226Z,5.20
2019-02-05T05:34:59.664Z,5.40
2019-02-05T05:37:28.111Z,4.23
2019-02-05T05:39:56.663Z,4.97
2019-02-05T05:42:26.679Z,4.87
2019-02-05T05:44:55.039Z,4.80
2019-02-05T05:47:26.273Z,4.10
2019-02-05T05:49:54.751Z,6.60
2019-02-05T05:52:23.389Z,5.00
2019-02-05T05:54:58.086Z,5.97
2019-02-05T05:57:27.731Z,4.80
2019-02-05T05:59:56.576Z,6.07
2019-02-05T06:02:25.296Z,6.83
2019-02-05T06:04:54.110Z,8.10
2019-02-05T06:07:22.452Z,8.97
2019-02-05T06:09:51.593Z,11.67
2019-02-05T06:12:20.873Z,7.00
2019-02-05T06:14:50.043Z,11.80
2019-02-05T06:17:22.811Z,9.30
2019-02-05T06:19:54.584Z,14.47
2019-02-05T06:22:23.195Z,26.53
2019-02-05T06:24:54.594Z,21.70
2019-02-05T06:27:24.399Z,13.40
2019-02-05T06:29:59.063Z,7.77
2019-02-05T06:32:28.680Z,7.80
2019-02-05T06:34:58.795Z,15.10
2019-02-05T06:37:28.825Z,15.23
2019-02-05T06:39:57.696Z,22.83
2019-02-05T06:42:26.614Z,11.00
2019-02-05T06:44:55.113Z,8.13
2019-02-05T06:47:27.265Z,8.10
2019-02-05T06:49:55.925Z,6.73
2019-02-05T06:52:26.864Z,8.27
2019-02-05T06:54:56.007Z,10.83
2019-02-05T06:57:24.428Z,9.43
2019-02-05T06:59:52.955Z,6.90
2019-02-05T07:02:21.354Z,9.50
2019-02-05T07:04:51.255Z,9.67
2019-02-05T07:07:19.787Z,22.30
2019-02-05T07:09:48.763Z,9.97
2019-02-05T07:12:17.486Z,9.23
2019-02-05T07:14:47.902Z,7.50
2019-02-05T07:17:18.983Z,7.67
2019-02-05T07:19:47.432Z,7.07
2019-02-05T07:22:16.544Z,4.20
2019-02-05T07:24:47.773Z,6.40
2019-02-05T07:27:19.347Z,6.53
2019-02-05T07:29:48.288Z,5.97
2019-02-05T07:32:19.409Z,5.57
2019-02-05T07:34:53.617Z,6.33
2019-02-05T07:37:27.035Z,5.10
2019-02-05T07:39:59.200Z,4.73
2019-02-05T07:42:28.850Z,5.10
2019-02-05T07:45:00.575Z,7.03
2019-02-05T07:47:39.861Z,5.33
2019-02-05T07:50:15.557Z,4.83
2019-02-05T07:52:46.128Z,6.22
2019-02-05T07:55:14.897Z,6.67
2019-02-05T07:57:46.061Z,4.97
2019-02-05T08:00:20.268Z,5.07
2019-02-05T08:02:51.928Z,4.03
2019-02-05T08:05:21.683Z,4.83
2019-02-05T08:07:53.921Z,4.97
2019-02-05T08:10:24.460Z,3.53
2019-02-05T08:12:56.754Z,4.43
2019-02-05T08:15:34.155Z,8.37
2019-02-05T08:18:16.066Z,11.17
2019-02-05T08:20:42.825Z,3.47
2019-02-05T08:23:14.879Z,5.83
2019-02-05T08:25:50.794Z,4.27
2019-02-05T08:28:23.990Z,5.50
2019-02-05T08:30:58.923Z,5.30
2019-02-05T08:33:33.776Z,5.95
2019-02-05T08:36:06.631Z,5.00
2019-02-05T08:38:36.267Z,6.10
2019-02-05T08:41:07.751Z,5.60
2019-02-05T08:43:37.366Z,6.53
2019-02-05T08:46:13.025Z,7.10
2019-02-05T08:48:49.928Z,7.83
2019-02-05T08:51:21.865Z,8.07
2019-02-05T08:53:54.269Z,5.83
2019-02-05T08:56:28.397Z,21.02
2019-02-05T08:58:57.271Z,10.67
2019-02-05T09:01:27.293Z,9.65
2019-02-05T09:04:02.796Z,8.10
2019-02-05T09:06:35.366Z,5.47
2019-02-05T09:09:05.880Z,5.93
2019-02-05T09:11:37.167Z,3.83
2019-02-05T09:14:13.564Z,4.03
2019-02-05T09:16:46.376Z,5.37
2019-02-05T09:19:19.458Z,5.00
2019-02-05T09:21:58.952Z,5.40
2019-02-05T09:24:28.508Z,3.20
2019-02-05T09:26:57.914Z,5.63
2019-02-05T09:29:33.203Z,6.60
2019-02-05T09:31:56.943Z,8.58
2019-02-05T09:34:26.181Z,8.10
2019-02-05T09:37:00.054Z,4.53
2019-02-05T09:39:31.163Z,5.67
2019-02-05T09:41:59.848Z,6.47
2019-02-05T09:44:31.539Z,4.57
2019-02-05T09:47:02.187Z,6.83
2019-02-05T09:49:33.659Z,7.50
2019-02-05T09:52:06.867Z,6.47
2019-02-05T09:54:38.802Z,3.07
2019-02-05T09:57:14.597Z,3.57
2019-02-05T09:59:48.334Z,2.70
2019-02-05T10:02:16.765Z,4.37
2019-02-05T10:04:51.921Z,3.10
2019-02-05T10:07:23.563Z,4.47
2019-02-05T10:09:57.057Z,3.27
2019-02-05T10:12:27.489Z,3.47
2019-02-05T10:15:04.863Z,3.37
2019-02-05T10:17:35.927Z,2.50
2019-02-05T10:20:10.537Z,2.93
2019-02-05T10:22:47.878Z,2.73
2019-02-05T10:25:20.914Z,5.80
2019-02-05T10:27:55.555Z,2.70
2019-02-05T10:30:32.227Z,2.67
2019-02-05T10:33:05.987Z,2.37
2019-02-05T10:35:39.247Z,2.98
2019-02-05T10:38:16.385Z,3.50
2019-02-05T10:40:45.266Z,2.50
2019-02-05T10:43:27.158Z,2.97
2019-02-05T10:46:00.744Z,2.27
2019-02-05T10:48:34.648Z,3.23
2019-02-05T10:51:05.921Z,3.22
2019-02-05T10:53:36.827Z,4.37
2019-02-05T10:56:14.105Z,5.03
2019-02-05T10:58:53.182Z,3.67
2019-02-05T11:01:27.883Z,4.10
2019-02-05T11:03:59.145Z,3.17
2019-02-05T11:06:30.516Z,3.10
2019-02-05T11:09:02.149Z,4.77
2019-02-05T11:11:35.397Z,3.67
2019-02-05T11:14:06.541Z,3.80
2019-02-05T11:16:37.611Z,3.53
2019-02-05T11:19:08.640Z,3.50
2019-02-05T11:24:52.136Z,3.10
2019-02-05T11:27:49.313Z,3.30
2019-02-05T11:30:21.300Z,5.67
2019-02-05T11:33:27.766Z,8.27
2019-02-05T11:36:00.803Z,3.97
2019-02-05T11:38:53.618Z,3.30
2019-02-05T11:41:23.879Z,35.50
2019-02-05T11:44:26.888Z,5.23
2019-02-05T11:46:57.739Z,4.17
2019-02-05T11:52:40.271Z,3.13
2019-02-05T11:55:44.066Z,4.40
2019-02-05T12:01:38.980Z,5.60
2019-02-05T12:04:06.283Z,5.03
2019-02-05T12:07:02.626Z,3.73
2019-02-05T12:09:36.334Z,3.43
2019-02-05T12:12:46.924Z,5.00
2019-02-05T12:15:20.192Z,4.80
2019-02-05T12:18:29.443Z,3.33
2019-02-05T12:21:05.706Z,4.37
2019-02-05T12:33:24.910Z,3.33
2019-02-05T12:36:23.020Z,3.37
2019-02-05T12:38:59.852Z,2.23
2019-02-05T12:48:12.419Z,3.33
2019-02-05T12:50:51.708Z,4.47
2019-02-05T12:53:21.822Z,2.20
2019-02-05T12:55:53.838Z,2.43
2019-02-05T12:58:23.941Z,2.90
2019-02-05T13:04:11.457Z,3.55
2019-02-05T13:07:31.773Z,3.00
2019-02-05T13:10:06.903Z,4.80
2019-02-05T13:13:06.007Z,3.00
2019-02-05T13:15:36.655Z,3.60
2019-02-05T13:21:21.689Z,4.60
2019-02-05T13:27:10.868Z,21.33
2019-02-05T13:30:19.111Z,7.47
2019-02-05T13:32:48.614Z,3.20
2019-02-05T13:36:00.245Z,3.83
2019-02-05T13:38:29.969Z,2.63
2019-02-05T13:41:44.732Z,3.40
2019-02-05T13:44:19.105Z,3.98
2019-02-05T13:50:01.422Z,4.75
2019-02-05T13:55:50.948Z,4.47
2019-02-05T13:58:26.983Z,4.17
2019-02-05T14:00:59.018Z,3.33
2019-02-05T14:04:03.298Z,10.80
2019-02-05T14:06:32.730Z,3.50
2019-02-05T14:09:44.757Z,4.50
2019-02-05T14:12:18.495Z,4.33
2019-02-05T14:15:16.911Z,5.97
2019-02-05T14:17:48.324Z,5.03
2019-02-05T14:23:32.992Z,5.13
2019-02-05T14:26:46.319Z,6.60
2019-02-05T14:29:21.040Z,4.70
2019-02-05T14:32:41.613Z,6.20
2019-02-05T14:35:11.832Z,6.83
2019-02-05T14:38:34.379Z,4.70
2019-02-05T14:41:05.631Z,4.07
2019-02-05T14:44:14.004Z,8.40
2019-02-05T14:46:49.031Z,4.63
2019-02-05T14:49:19.711Z,4.93
2019-02-05T14:51:49.526Z,13.70
2019-02-05T14:54:23.555Z,7.13
2019-02-05T15:00:17.804Z,7.03
2019-02-05T15:03:20.804Z,4.43
2019-02-05T15:05:53.815Z,3.93
2019-02-05T15:11:38.845Z,4.50
2019-02-05T15:14:53.891Z,2.80
2019-02-05T15:17:27.718Z,5.47
2019-02-05T15:20:41.888Z,7.07
2019-02-05T15:23:15.453Z,6.43
2019-02-05T15:26:24.100Z,9.90
2019-02-05T15:28:54.209Z,9.13
2019-02-05T15:32:06.338Z,7.77
2019-02-05T15:34:44.255Z,6.40
2019-02-05T15:37:44.317Z,7.47
2019-02-05T15:40:15.633Z,6.73
2019-02-05T15:43:16.986Z,6.47
2019-02-05T15:45:48.787Z,7.53
2019-02-05T15:49:14.973Z,8.40
2019-02-05T15:51:56.665Z,6.10
2019-02-05T15:54:43.210Z,5.77
2019-02-05T15:57:12.110Z,6.63
2019-02-05T16:00:17.164Z,6.67
2019-02-05T16:02:53.197Z,7.63
2019-02-05T16:08:34.608Z,6.37
2019-02-05T16:11:43.123Z,7.70
2019-02-05T16:14:15.650Z,6.40
2019-02-05T16:20:06.350Z,5.47
2019-02-05T16:23:10.891Z,6.23
2019-02-05T16:25:39.716Z,5.87
2019-02-05T16:28:27.400Z,5.47
2019-02-05T16:30:55.807Z,8.37
2019-02-05T16:36:34.842Z,6.40
2019-02-05T16:39:36.267Z,8.03
2019-02-05T16:42:06.313Z,7.07
2019-02-05T16:44:59.907Z,8.63
2019-02-05T16:47:32.018Z,6.60
2019-02-05T16:50:40.896Z,7.57
2019-02-05T16:53:10.747Z,7.67
2019-02-05T16:56:12.805Z,8.00
2019-02-05T16:58:45.860Z,7.07
2019-02-05T17:01:53.749Z,7.17
2019-02-05T17:04:22.209Z,9.77
2019-02-05T17:07:15.723Z,8.40
2019-02-05T17:09:56.616Z,5.37
2019-02-05T17:12:31.764Z,5.60
2019-02-05T17:15:01.016Z,6.60
2019-02-05T17:17:33.929Z,7.87
2019-02-05T17:23:16.754Z,6.37
2019-02-05T17:26:20.875Z,6.40
2019-02-05T17:28:52.580Z,6.43
2019-02-05T17:32:00.135Z,9.03
2019-02-05T17:34:34.656Z,10.60
2019-02-05T17:37:37.803Z,10.53
2019-02-05T17:40:15.928Z,7.67
2019-02-05T17:43:36.036Z,11.90
2019-02-05T17:46:18.476Z,12.97
2019-02-05T17:48:45.603Z,14.10
2019-02-05T17:51:17.057Z,16.33
2019-02-05T17:53:48.843Z,17.53
2019-02-05T17:56:28.547Z,15.13
2019-02-05T17:59:15.644Z,16.67
2019-02-05T18:01:28.757Z,14.73
2019-02-05T18:04:02.865Z,15.10
2019-02-05T18:06:35.810Z,9.77
2019-02-05T18:10:01.393Z,11.23
2019-02-05T18:12:30.485Z,9.57
2019-02-05T18:15:32.372Z,10.47
2019-02-05T18:18:04.954Z,8.37
2019-02-05T18:21:09.680Z,8.77
2019-02-05T18:23:44.715Z,9.80
2019-02-05T18:26:53.852Z,9.37
2019-02-05T18:29:25.697Z,9.33
2019-02-05T18:32:36.702Z,8.00
2019-02-05T18:35:09.676Z,11.87
2019-02-05T18:37:39.822Z,8.47
2019-02-05T18:40:21.017Z,7.57
2019-02-05T18:42:50.118Z,8.00
2019-02-05T18:45:56.067Z,7.37
2019-02-05T18:48:28.442Z,7.80
2019-02-05T18:51:02.342Z,6.07
2019-02-05T18:53:32.755Z,8.23
2019-02-05T18:56:04.940Z,6.53
2019-02-05T18:58:39.213Z,5.80
2019-02-05T19:01:06.003Z,6.10
2019-02-05T19:03:38.186Z,5.90
2019-02-05T19:06:51.224Z,4.20
2019-02-05T19:09:24.890Z,8.10
2019-02-05T19:12:04.395Z,7.83
2019-02-05T19:14:32.805Z,9.23
2019-02-05T19:17:13.525Z,8.30
2019-02-05T19:20:34.346Z,5.27
2019-02-05T19:23:14.276Z,6.73
2019-02-05T19:28:53.315Z,5.73
2019-02-05T19:34:18.431Z,5.50
2019-02-05T19:39:25.510Z,6.53
2019-02-05T19:42:10.125Z,9.63
2019-02-05T19:45:10.185Z,5.80
2019-02-05T19:47:39.318Z,6.70
2019-02-05T19:50:33.647Z,7.00
2019-02-05T19:52:42.882Z,7.47
2019-02-05T19:55:19.942Z,5.63
2019-02-05T19:58:22.845Z,5.87
2019-02-05T20:00:53.501Z,6.70
2019-02-05T20:03:22.140Z,7.17
2019-02-05T20:06:16.226Z,5.90
2019-02-05T20:08:55.685Z,8.17
2019-02-05T20:12:03.047Z,5.80
2019-02-05T20:14:42.056Z,4.83
2019-02-05T20:17:14.892Z,7.67
2019-02-05T20:19:49.898Z,5.27
2019-02-05T20:22:22.545Z,5.07
2019-02-05T20:25:37.337Z,5.10
2019-02-05T20:28:11.938Z,4.93
2019-02-05T20:30:46.961Z,6.33
2019-02-05T20:33:16.528Z,6.07
2019-02-05T20:35:48.424Z,5.13
2019-02-05T20:38:54.734Z,4.10
2019-02-05T20:41:30.433Z,3.00
2019-02-05T20:44:04.741Z,3.87
2019-02-05T20:49:47.937Z,3.73
2019-02-05T21:00:54.235Z,6.10
2019-02-05T21:04:19.028Z,6.17
2019-02-05T21:06:50.924Z,7.57
2019-02-05T21:11:59.881Z,9.03
2019-02-05T21:14:47.451Z,8.77
2019-02-05T21:20:39.801Z,9.00
2019-02-05T21:23:09.643Z,11.40
2019-02-05T21:26:37.763Z,10.60
2019-02-05T21:29:28.291Z,11.47
2019-02-05T21:32:33.070Z,11.30
2019-02-05T21:35:11.518Z,12.90
2019-02-05T21:37:41.516Z,15.87
2019-02-05T21:40:15.470Z,14.95
2019-02-05T21:42:45.386Z,13.70
2019-02-05T21:48:37.452Z,12.33
2019-02-05T21:54:05.431Z,14.70
2019-02-05T21:56:39.156Z,13.73
2019-02-05T21:59:42.830Z,16.25
2019-02-05T22:02:14.123Z,18.53
2019-02-05T22:04:51.280Z,15.00
2019-02-05T22:07:24.876Z,16.87
2019-02-05T22:09:59.818Z,14.68
2019-02-05T22:12:58.972Z,15.10
2019-02-05T22:15:32.118Z,12.70
2019-02-05T22:19:07.611Z,13.77
2019-02-05T22:20:43.305Z,15.17
2019-02-05T22:23:14.544Z,15.33
2019-02-05T22:25:48.470Z,14.13
2019-02-05T22:28:22.129Z,15.63
2019-02-05T22:31:34.589Z,12.43
2019-02-05T22:34:04.224Z,15.73
2019-02-05T22:36:32.918Z,15.87
2019-02-05T22:39:03.868Z,13.43
2019-02-05T22:41:37.300Z,13.77
2019-02-05T22:44:09.188Z,16.03
2019-02-05T22:46:44.364Z,15.37
2019-02-05T22:49:16.523Z,16.23
2019-02-05T22:51:46.719Z,14.37
2019-02-05T22:54:16.718Z,14.65
2019-02-05T22:56:46.297Z,15.53
2019-02-05T22:59:56.737Z,15.30
2019-02-05T23:02:28.003Z,15.97
2019-02-05T23:05:00.275Z,16.37
2019-02-05T23:08:00.824Z,16.30
2019-02-05T23:10:32.349Z,18.40
2019-02-05T23:13:06.872Z,14.80
2019-02-05T23:15:43.465Z,13.87
2019-02-05T23:18:24.385Z,14.57
2019-02-05T23:21:55.259Z,15.72
2019-02-05T23:27:17.605Z,15.10
2019-02-05T23:30:24.225Z,13.75
2019-02-05T23:32:58.656Z,13.30
2019-02-05T23:38:29.695Z,14.37
2019-02-05T23:40:57.999Z,16.13
2019-02-05T23:43:52.246Z,14.13
2019-02-05T23:46:21.383Z,15.30
2019-02-05T23:48:54.465Z,15.93
2019-02-05T23:51:33.718Z,18.17
2019-02-05T23:54:06.274Z,15.32
2019-02-05T23:56:36.147Z,13.72
2019-02-05T23:59:41.946Z,12.82
